sensor_id;sensor_type;location;lat;lon;timestamp;temperature;humidity
14850;DHT22;7517;48.400;11.770;2022-09-13T00:01:04;16.90;71.10
14850;DHT22;7517;48.400;11.770;2022-09-13T00:03:31;16.90;71.00
14850;DHT22;7517;48.400;11.770;2022-09-13T00:06:06;16.90;71.00
14850;DHT22;7517;48.400;11.770;2022-09-13T00:08:35;16.90;71.20
14850;DHT22;7517;48.400;11.770;2022-09-13T00:11:02;16.80;71.00
14850;DHT22;7517;48.400;11.770;2022-09-13T00:13:30;16.80;71.20
14850;DHT22;7517;48.400;11.770;2022-09-13T00:15:58;16.80;71.40
14850;DHT22;7517;48.400;11.770;2022-09-13T00:18:28;16.80;71.50
14850;DHT22;7517;48.400;11.770;2022-09-13T00:21:06;16.80;71.40
14850;DHT22;7517;48.400;11.770;2022-09-13T00:23:35;16.80;71.90
14850;DHT22;7517;48.400;11.770;2022-09-13T00:26:05;16.70;71.60
14850;DHT22;7517;48.400;11.770;2022-09-13T00:28:34;16.70;71.60
14850;DHT22;7517;48.400;11.770;2022-09-13T00:31:04;16.60;71.60
14850;DHT22;7517;48.400;11.770;2022-09-13T00:33:33;16.70;71.70
14850;DHT22;7517;48.400;11.770;2022-09-13T00:36:03;16.70;71.60
14850;DHT22;7517;48.400;11.770;2022-09-13T00:38:31;16.60;71.50
14850;DHT22;7517;48.400;11.770;2022-09-13T00:41:00;16.60;71.70
14850;DHT22;7517;48.400;11.770;2022-09-13T00:43:46;16.60;72.00
14850;DHT22;7517;48.400;11.770;2022-09-13T00:46:23;16.60;72.00
14850;DHT22;7517;48.400;11.770;2022-09-13T00:48:58;16.60;71.90
14850;DHT22;7517;48.400;11.770;2022-09-13T00:51:28;16.60;71.80
14850;DHT22;7517;48.400;11.770;2022-09-13T00:53:58;16.60;71.70
14850;DHT22;7517;48.400;11.770;2022-09-13T00:56:31;16.50;71.70
14850;DHT22;7517;48.400;11.770;2022-09-13T00:59:06;16.50;71.70
14850;DHT22;7517;48.400;11.770;2022-09-13T01:01:43;16.50;71.60
14850;DHT22;7517;48.400;11.770;2022-09-13T01:04:15;16.50;71.70
14850;DHT22;7517;48.400;11.770;2022-09-13T01:06:47;16.40;71.60
14850;DHT22;7517;48.400;11.770;2022-09-13T01:09:15;16.40;71.80
14850;DHT22;7517;48.400;11.770;2022-09-13T01:11:46;16.40;72.00
14850;DHT22;7517;48.400;11.770;2022-09-13T01:14:17;16.40;72.10
14850;DHT22;7517;48.400;11.770;2022-09-13T01:16:46;16.40;72.30
14850;DHT22;7517;48.400;11.770;2022-09-13T01:19:14;16.40;72.30
14850;DHT22;7517;48.400;11.770;2022-09-13T01:22:12;16.40;72.30
14850;DHT22;7517;48.400;11.770;2022-09-13T01:25:36;16.40;72.60
14850;DHT22;7517;48.400;11.770;2022-09-13T01:32:11;16.40;72.20
14850;DHT22;7517;48.400;11.770;2022-09-13T01:34:54;16.30;71.70
14850;DHT22;7517;48.400;11.770;2022-09-13T01:37:41;16.30;72.40
14850;DHT22;7517;48.400;11.770;2022-09-13T01:40:27;16.30;71.70
14850;DHT22;7517;48.400;11.770;2022-09-13T01:43:26;16.30;71.80
14850;DHT22;7517;48.400;11.770;2022-09-13T01:46:05;16.30;71.80
14850;DHT22;7517;48.400;11.770;2022-09-13T01:48:48;16.20;71.50
14850;DHT22;7517;48.400;11.770;2022-09-13T01:51:27;16.20;71.60
14850;DHT22;7517;48.400;11.770;2022-09-13T01:54:09;16.20;71.50
14850;DHT22;7517;48.400;11.770;2022-09-13T01:56:48;16.10;71.40
14850;DHT22;7517;48.400;11.770;2022-09-13T01:59:23;16.10;71.40
14850;DHT22;7517;48.400;11.770;2022-09-13T02:02:03;16.10;71.40
14850;DHT22;7517;48.400;11.770;2022-09-13T02:04:36;16.00;71.30
14850;DHT22;7517;48.400;11.770;2022-09-13T02:07:09;16.00;71.50
14850;DHT22;7517;48.400;11.770;2022-09-13T02:09:45;16.00;71.50
14850;DHT22;7517;48.400;11.770;2022-09-13T02:12:18;15.90;71.50
14850;DHT22;7517;48.400;11.770;2022-09-13T02:14:52;15.90;71.80
14850;DHT22;7517;48.400;11.770;2022-09-13T02:17:27;15.90;72.10
14850;DHT22;7517;48.400;11.770;2022-09-13T02:20:02;15.90;72.40
14850;DHT22;7517;48.400;11.770;2022-09-13T02:22:36;15.90;72.40
14850;DHT22;7517;48.400;11.770;2022-09-13T02:25:10;15.90;72.30
14850;DHT22;7517;48.400;11.770;2022-09-13T02:27:43;15.90;72.40
14850;DHT22;7517;48.400;11.770;2022-09-13T02:30:13;15.90;72.40
14850;DHT22;7517;48.400;11.770;2022-09-13T02:32:44;15.80;72.30
14850;DHT22;7517;48.400;11.770;2022-09-13T02:35:20;15.80;72.30
14850;DHT22;7517;48.400;11.770;2022-09-13T02:37:57;15.80;72.20
14850;DHT22;7517;48.400;11.770;2022-09-13T02:40:32;15.80;72.20
14850;DHT22;7517;48.400;11.770;2022-09-13T02:43:09;15.80;72.10
14850;DHT22;7517;48.400;11.770;2022-09-13T02:45:46;15.80;72.10
14850;DHT22;7517;48.400;11.770;2022-09-13T02:48:21;15.80;72.10
14850;DHT22;7517;48.400;11.770;2022-09-13T02:51:01;15.70;72.00
14850;DHT22;7517;48.400;11.770;2022-09-13T02:53:38;15.70;72.00
14850;DHT22;7517;48.400;11.770;2022-09-13T02:56:17;15.70;72.10
14850;DHT22;7517;48.400;11.770;2022-09-13T02:58:55;15.70;72.10
14850;DHT22;7517;48.400;11.770;2022-09-13T03:01:25;15.70;72.20
14850;DHT22;7517;48.400;11.770;2022-09-13T03:03:53;15.60;72.10
14850;DHT22;7517;48.400;11.770;2022-09-13T03:06:23;15.60;72.10
14850;DHT22;7517;48.400;11.770;2022-09-13T03:08:52;15.60;72.20
14850;DHT22;7517;48.400;11.770;2022-09-13T03:11:31;15.60;72.10
14850;DHT22;7517;48.400;11.770;2022-09-13T03:14:29;15.50;72.30
14850;DHT22;7517;48.400;11.770;2022-09-13T03:17:12;15.50;72.70
14850;DHT22;7517;48.400;11.770;2022-09-13T03:20:05;15.50;72.60
14850;DHT22;7517;48.400;11.770;2022-09-13T03:26:07;15.50;72.40
14850;DHT22;7517;48.400;11.770;2022-09-13T03:28:50;15.50;72.50
14850;DHT22;7517;48.400;11.770;2022-09-13T03:31:32;15.50;73.00
14850;DHT22;7517;48.400;11.770;2022-09-13T03:34:08;15.40;72.30
14850;DHT22;7517;48.400;11.770;2022-09-13T03:36:44;15.40;72.30
14850;DHT22;7517;48.400;11.770;2022-09-13T03:39:22;15.40;72.30
14850;DHT22;7517;48.400;11.770;2022-09-13T03:42:00;15.40;72.50
14850;DHT22;7517;48.400;11.770;2022-09-13T03:44:34;15.40;72.50
14850;DHT22;7517;48.400;11.770;2022-09-13T03:47:05;15.30;72.40
14850;DHT22;7517;48.400;11.770;2022-09-13T03:49:36;15.30;72.60
14850;DHT22;7517;48.400;11.770;2022-09-13T03:52:05;15.30;72.90
14850;DHT22;7517;48.400;11.770;2022-09-13T03:54:36;15.30;72.90
14850;DHT22;7517;48.400;11.770;2022-09-13T03:57:12;15.30;73.10
14850;DHT22;7517;48.400;11.770;2022-09-13T03:59:43;15.30;73.20
14850;DHT22;7517;48.400;11.770;2022-09-13T04:02:19;15.30;73.00
14850;DHT22;7517;48.400;11.770;2022-09-13T04:04:48;15.30;73.20
14850;DHT22;7517;48.400;11.770;2022-09-13T04:07:19;15.20;72.90
14850;DHT22;7517;48.400;11.770;2022-09-13T04:09:49;15.20;73.50
14850;DHT22;7517;48.400;11.770;2022-09-13T04:12:17;15.20;72.90
14850;DHT22;7517;48.400;11.770;2022-09-13T04:14:45;15.20;72.80
14850;DHT22;7517;48.400;11.770;2022-09-13T04:17:12;15.20;72.70
14850;DHT22;7517;48.400;11.770;2022-09-13T04:19:40;15.20;72.70
14850;DHT22;7517;48.400;11.770;2022-09-13T04:22:13;15.10;72.70
14850;DHT22;7517;48.400;11.770;2022-09-13T04:24:41;15.10;72.60
14850;DHT22;7517;48.400;11.770;2022-09-13T04:27:11;15.10;72.60
14850;DHT22;7517;48.400;11.770;2022-09-13T04:29:38;15.10;72.70
14850;DHT22;7517;48.400;11.770;2022-09-13T04:32:06;15.10;72.80
14850;DHT22;7517;48.400;11.770;2022-09-13T04:34:35;15.10;72.90
14850;DHT22;7517;48.400;11.770;2022-09-13T04:37:02;15.10;72.90
14850;DHT22;7517;48.400;11.770;2022-09-13T04:39:30;15.10;72.90
14850;DHT22;7517;48.400;11.770;2022-09-13T04:41:57;15.00;72.80
14850;DHT22;7517;48.400;11.770;2022-09-13T04:44:25;15.00;72.80
14850;DHT22;7517;48.400;11.770;2022-09-13T04:46:54;15.00;72.80
14850;DHT22;7517;48.400;11.770;2022-09-13T04:49:24;15.00;72.80
14850;DHT22;7517;48.400;11.770;2022-09-13T04:51:52;15.00;72.80
14850;DHT22;7517;48.400;11.770;2022-09-13T04:54:19;15.00;72.80
14850;DHT22;7517;48.400;11.770;2022-09-13T04:56:46;15.00;72.80
14850;DHT22;7517;48.400;11.770;2022-09-13T04:59:14;15.00;72.80
14850;DHT22;7517;48.400;11.770;2022-09-13T05:01:43;15.00;72.80
14850;DHT22;7517;48.400;11.770;2022-09-13T05:04:10;14.90;72.80
14850;DHT22;7517;48.400;11.770;2022-09-13T05:06:38;14.90;72.70
14850;DHT22;7517;48.400;11.770;2022-09-13T05:09:05;14.90;73.50
14850;DHT22;7517;48.400;11.770;2022-09-13T05:11:32;14.90;72.80
14850;DHT22;7517;48.400;11.770;2022-09-13T05:14:00;14.90;72.90
14850;DHT22;7517;48.400;11.770;2022-09-13T05:16:32;14.90;73.00
14850;DHT22;7517;48.400;11.770;2022-09-13T05:19:01;14.90;73.10
14850;DHT22;7517;48.400;11.770;2022-09-13T05:21:29;14.90;73.20
14850;DHT22;7517;48.400;11.770;2022-09-13T05:23:59;14.90;73.30
14850;DHT22;7517;48.400;11.770;2022-09-13T05:26:28;14.90;73.40
14850;DHT22;7517;48.400;11.770;2022-09-13T05:29:04;15.00;73.70
14850;DHT22;7517;48.400;11.770;2022-09-13T05:31:33;15.00;73.90
14850;DHT22;7517;48.400;11.770;2022-09-13T05:34:06;15.00;73.90
14850;DHT22;7517;48.400;11.770;2022-09-13T05:36:35;15.00;74.10
14850;DHT22;7517;48.400;11.770;2022-09-13T05:39:09;15.00;74.10
14850;DHT22;7517;48.400;11.770;2022-09-13T05:41:39;15.10;74.30
14850;DHT22;7517;48.400;11.770;2022-09-13T05:44:06;15.10;74.20
14850;DHT22;7517;48.400;11.770;2022-09-13T05:46:34;15.10;74.30
14850;DHT22;7517;48.400;11.770;2022-09-13T05:49:01;15.10;74.40
14850;DHT22;7517;48.400;11.770;2022-09-13T05:51:30;15.20;74.70
14850;DHT22;7517;48.400;11.770;2022-09-13T05:53:57;15.20;74.80
14850;DHT22;7517;48.400;11.770;2022-09-13T05:56:26;15.20;74.90
14850;DHT22;7517;48.400;11.770;2022-09-13T05:58:54;15.20;75.00
14850;DHT22;7517;48.400;11.770;2022-09-13T06:01:24;15.30;75.20
14850;DHT22;7517;48.400;11.770;2022-09-13T06:03:54;15.30;75.40
14850;DHT22;7517;48.400;11.770;2022-09-13T06:06:23;15.30;75.60
14850;DHT22;7517;48.400;11.770;2022-09-13T06:08:53;15.40;76.00
14850;DHT22;7517;48.400;11.770;2022-09-13T06:11:22;15.50;76.40
14850;DHT22;7517;48.400;11.770;2022-09-13T06:13:51;15.50;76.40
14850;DHT22;7517;48.400;11.770;2022-09-13T06:16:19;15.60;76.60
14850;DHT22;7517;48.400;11.770;2022-09-13T06:18:46;15.60;76.50
14850;DHT22;7517;48.400;11.770;2022-09-13T06:21:14;15.70;76.60
14850;DHT22;7517;48.400;11.770;2022-09-13T06:23:44;15.80;76.60
14850;DHT22;7517;48.400;11.770;2022-09-13T06:26:15;15.80;76.60
14850;DHT22;7517;48.400;11.770;2022-09-13T06:28:47;15.90;76.80
14850;DHT22;7517;48.400;11.770;2022-09-13T06:31:16;15.90;76.90
14850;DHT22;7517;48.400;11.770;2022-09-13T06:33:44;16.00;76.90
14850;DHT22;7517;48.400;11.770;2022-09-13T06:36:13;16.10;77.00
14850;DHT22;7517;48.400;11.770;2022-09-13T06:38:42;16.10;77.10
14850;DHT22;7517;48.400;11.770;2022-09-13T06:41:13;16.20;77.10
14850;DHT22;7517;48.400;11.770;2022-09-13T06:43:43;16.20;77.20
14850;DHT22;7517;48.400;11.770;2022-09-13T06:46:13;16.30;77.30
14850;DHT22;7517;48.400;11.770;2022-09-13T06:48:43;16.40;77.40
14850;DHT22;7517;48.400;11.770;2022-09-13T06:51:12;16.50;77.40
14850;DHT22;7517;48.400;11.770;2022-09-13T06:53:42;16.50;77.30
14850;DHT22;7517;48.400;11.770;2022-09-13T06:56:13;16.60;77.30
14850;DHT22;7517;48.400;11.770;2022-09-13T06:58:43;16.70;77.40
14850;DHT22;7517;48.400;11.770;2022-09-13T07:01:13;16.80;77.40
14850;DHT22;7517;48.400;11.770;2022-09-13T07:03:43;16.90;77.30
14850;DHT22;7517;48.400;11.770;2022-09-13T07:06:13;16.90;77.30
14850;DHT22;7517;48.400;11.770;2022-09-13T07:08:43;17.00;77.30
14850;DHT22;7517;48.400;11.770;2022-09-13T07:11:14;17.10;77.40
14850;DHT22;7517;48.400;11.770;2022-09-13T07:13:47;17.20;77.60
14850;DHT22;7517;48.400;11.770;2022-09-13T07:16:16;17.30;77.60
14850;DHT22;7517;48.400;11.770;2022-09-13T07:18:51;17.40;78.50
14850;DHT22;7517;48.400;11.770;2022-09-13T07:21:19;17.50;78.10
14850;DHT22;7517;48.400;11.770;2022-09-13T07:23:47;17.60;78.00
14850;DHT22;7517;48.400;11.770;2022-09-13T07:26:16;17.70;78.20
14850;DHT22;7517;48.400;11.770;2022-09-13T07:28:45;17.80;78.20
14850;DHT22;7517;48.400;11.770;2022-09-13T07:31:16;17.90;78.10
14850;DHT22;7517;48.400;11.770;2022-09-13T07:33:46;18.00;78.00
14850;DHT22;7517;48.400;11.770;2022-09-13T07:36:21;18.20;77.90
14850;DHT22;7517;48.400;11.770;2022-09-13T07:38:49;18.30;77.70
14850;DHT22;7517;48.400;11.770;2022-09-13T07:41:20;18.50;77.60
14850;DHT22;7517;48.400;11.770;2022-09-13T07:43:50;18.60;78.20
14850;DHT22;7517;48.400;11.770;2022-09-13T07:46:21;18.80;77.20
14850;DHT22;7517;48.400;11.770;2022-09-13T07:48:52;18.90;77.10
14850;DHT22;7517;48.400;11.770;2022-09-13T07:51:21;19.10;77.00
14850;DHT22;7517;48.400;11.770;2022-09-13T07:53:51;19.30;76.90
14850;DHT22;7517;48.400;11.770;2022-09-13T07:56:24;19.40;76.80
14850;DHT22;7517;48.400;11.770;2022-09-13T07:58:53;19.60;76.90
14850;DHT22;7517;48.400;11.770;2022-09-13T08:01:23;19.70;76.50
14850;DHT22;7517;48.400;11.770;2022-09-13T08:03:54;19.90;76.30
14850;DHT22;7517;48.400;11.770;2022-09-13T08:06:24;20.10;76.10
14850;DHT22;7517;48.400;11.770;2022-09-13T08:08:53;20.20;76.10
14850;DHT22;7517;48.400;11.770;2022-09-13T08:11:24;20.40;75.70
14850;DHT22;7517;48.400;11.770;2022-09-13T08:13:54;20.60;75.80
14850;DHT22;7517;48.400;11.770;2022-09-13T08:16:23;20.70;75.50
14850;DHT22;7517;48.400;11.770;2022-09-13T08:18:53;20.90;75.30
14850;DHT22;7517;48.400;11.770;2022-09-13T08:21:22;21.10;74.70
14850;DHT22;7517;48.400;11.770;2022-09-13T08:23:53;21.20;74.50
14850;DHT22;7517;48.400;11.770;2022-09-13T08:26:21;21.40;74.10
14850;DHT22;7517;48.400;11.770;2022-09-13T08:28:55;21.50;73.80
14850;DHT22;7517;48.400;11.770;2022-09-13T08:31:23;21.70;73.50
14850;DHT22;7517;48.400;11.770;2022-09-13T08:33:52;21.80;73.30
14850;DHT22;7517;48.400;11.770;2022-09-13T08:36:21;22.00;73.00
14850;DHT22;7517;48.400;11.770;2022-09-13T08:38:50;22.10;72.20
14850;DHT22;7517;48.400;11.770;2022-09-13T08:44:33;22.30;71.50
14850;DHT22;7517;48.400;11.770;2022-09-13T08:47:20;22.50;71.70
14850;DHT22;7517;48.400;11.770;2022-09-13T08:50:03;22.70;71.90
14850;DHT22;7517;48.400;11.770;2022-09-13T08:52:44;22.80;71.00
14850;DHT22;7517;48.400;11.770;2022-09-13T08:55:28;23.00;70.20
14850;DHT22;7517;48.400;11.770;2022-09-13T08:58:39;23.20;69.70
14850;DHT22;7517;48.400;11.770;2022-09-13T09:01:29;23.40;69.40
14850;DHT22;7517;48.400;11.770;2022-09-13T09:04:13;23.60;69.40
14850;DHT22;7517;48.400;11.770;2022-09-13T09:06:55;23.80;68.70
14850;DHT22;7517;48.400;11.770;2022-09-13T09:09:33;23.90;68.90
14850;DHT22;7517;48.400;11.770;2022-09-13T09:12:13;24.10;68.30
14850;DHT22;7517;48.400;11.770;2022-09-13T09:14:50;24.30;66.70
14850;DHT22;7517;48.400;11.770;2022-09-13T09:17:28;24.40;67.10
14850;DHT22;7517;48.400;11.770;2022-09-13T09:20:06;24.60;67.00
14850;DHT22;7517;48.400;11.770;2022-09-13T09:22:43;24.70;65.90
14850;DHT22;7517;48.400;11.770;2022-09-13T09:25:12;24.90;66.00
14850;DHT22;7517;48.400;11.770;2022-09-13T09:27:39;25.00;65.20
14850;DHT22;7517;48.400;11.770;2022-09-13T09:30:12;25.10;65.50
14850;DHT22;7517;48.400;11.770;2022-09-13T09:33:08;25.30;64.70
14850;DHT22;7517;48.400;11.770;2022-09-13T09:35:54;25.40;63.70
14850;DHT22;7517;48.400;11.770;2022-09-13T09:38:36;25.60;64.10
14850;DHT22;7517;48.400;11.770;2022-09-13T09:41:12;25.70;63.60
14850;DHT22;7517;48.400;11.770;2022-09-13T09:43:49;25.80;62.60
14850;DHT22;7517;48.400;11.770;2022-09-13T09:46:26;25.90;62.60
14850;DHT22;7517;48.400;11.770;2022-09-13T09:49:12;26.10;62.80
14850;DHT22;7517;48.400;11.770;2022-09-13T09:52:01;26.20;62.30
14850;DHT22;7517;48.400;11.770;2022-09-13T09:54:34;26.40;62.90
14850;DHT22;7517;48.400;11.770;2022-09-13T09:57:03;26.50;62.50
14850;DHT22;7517;48.400;11.770;2022-09-13T09:59:32;26.70;62.20
14850;DHT22;7517;48.400;11.770;2022-09-13T10:02:09;26.90;61.50
14850;DHT22;7517;48.400;11.770;2022-09-13T10:04:53;27.00;61.10
14850;DHT22;7517;48.400;11.770;2022-09-13T10:07:26;27.20;59.90
14850;DHT22;7517;48.400;11.770;2022-09-13T10:10:00;27.30;59.60
14850;DHT22;7517;48.400;11.770;2022-09-13T10:12:32;27.50;60.10
14850;DHT22;7517;48.400;11.770;2022-09-13T10:15:09;27.70;59.70
14850;DHT22;7517;48.400;11.770;2022-09-13T10:17:42;27.90;59.60
14850;DHT22;7517;48.400;11.770;2022-09-13T10:20:27;28.00;59.10
14850;DHT22;7517;48.400;11.770;2022-09-13T10:23:10;28.20;58.20
14850;DHT22;7517;48.400;11.770;2022-09-13T10:25:57;28.40;57.70
14850;DHT22;7517;48.400;11.770;2022-09-13T10:28:29;28.60;57.90
14850;DHT22;7517;48.400;11.770;2022-09-13T10:31:03;28.80;57.50
14850;DHT22;7517;48.400;11.770;2022-09-13T10:33:36;28.90;57.00
14850;DHT22;7517;48.400;11.770;2022-09-13T10:36:12;29.10;56.90
14850;DHT22;7517;48.400;11.770;2022-09-13T10:38:46;29.20;56.00
14850;DHT22;7517;48.400;11.770;2022-09-13T10:41:23;29.30;56.10
14850;DHT22;7517;48.400;11.770;2022-09-13T10:43:56;29.30;55.70
14850;DHT22;7517;48.400;11.770;2022-09-13T10:48:57;29.40;55.10
14850;DHT22;7517;48.400;11.770;2022-09-13T10:51:34;29.40;55.50
14850;DHT22;7517;48.400;11.770;2022-09-13T10:54:15;29.40;54.30
14850;DHT22;7517;48.400;11.770;2022-09-13T10:56:49;29.30;54.30
14850;DHT22;7517;48.400;11.770;2022-09-13T10:59:26;29.30;54.70
14850;DHT22;7517;48.400;11.770;2022-09-13T11:05:23;29.20;53.70
14850;DHT22;7517;48.400;11.770;2022-09-13T11:08:10;29.20;54.60
14850;DHT22;7517;48.400;11.770;2022-09-13T11:10:57;29.10;54.30
14850;DHT22;7517;48.400;11.770;2022-09-13T11:13:42;29.10;54.20
14850;DHT22;7517;48.400;11.770;2022-09-13T11:16:33;29.00;54.30
14850;DHT22;7517;48.400;11.770;2022-09-13T11:19:40;28.90;54.10
14850;DHT22;7517;48.400;11.770;2022-09-13T11:22:50;28.90;54.60
14850;DHT22;7517;48.400;11.770;2022-09-13T11:25:50;28.80;54.10
14850;DHT22;7517;48.400;11.770;2022-09-13T11:28:32;28.80;54.30
14850;DHT22;7517;48.400;11.770;2022-09-13T11:31:19;28.80;55.00
14850;DHT22;7517;48.400;11.770;2022-09-13T11:34:03;28.70;54.90
14850;DHT22;7517;48.400;11.770;2022-09-13T11:36:48;28.70;54.30
14850;DHT22;7517;48.400;11.770;2022-09-13T11:39:31;28.70;54.50
14850;DHT22;7517;48.400;11.770;2022-09-13T11:42:12;28.70;54.70
14850;DHT22;7517;48.400;11.770;2022-09-13T11:45:00;28.60;54.80
14850;DHT22;7517;48.400;11.770;2022-09-13T11:47:51;28.60;54.40
14850;DHT22;7517;48.400;11.770;2022-09-13T11:50:48;28.60;54.80
14850;DHT22;7517;48.400;11.770;2022-09-13T11:53:47;28.60;54.60
14850;DHT22;7517;48.400;11.770;2022-09-13T11:56:33;28.60;55.00
14850;DHT22;7517;48.400;11.770;2022-09-13T11:59:13;28.60;54.70
14850;DHT22;7517;48.400;11.770;2022-09-13T12:01:51;28.60;54.10
14850;DHT22;7517;48.400;11.770;2022-09-13T12:04:25;28.50;54.20
14850;DHT22;7517;48.400;11.770;2022-09-13T12:07:00;28.50;54.40
14850;DHT22;7517;48.400;11.770;2022-09-13T12:09:39;28.50;54.50
14850;DHT22;7517;48.400;11.770;2022-09-13T12:12:17;28.50;54.70
14850;DHT22;7517;48.400;11.770;2022-09-13T12:14:53;28.50;54.60
14850;DHT22;7517;48.400;11.770;2022-09-13T12:17:27;28.50;54.90
14850;DHT22;7517;48.400;11.770;2022-09-13T12:20:12;28.50;54.90
14850;DHT22;7517;48.400;11.770;2022-09-13T12:22:44;28.50;54.20
14850;DHT22;7517;48.400;11.770;2022-09-13T12:25:19;28.50;54.10
14850;DHT22;7517;48.400;11.770;2022-09-13T12:28:05;28.50;53.20
14850;DHT22;7517;48.400;11.770;2022-09-13T12:30:44;28.50;52.70
14850;DHT22;7517;48.400;11.770;2022-09-13T12:33:16;28.50;53.50
14850;DHT22;7517;48.400;11.770;2022-09-13T12:35:53;28.50;52.70
14850;DHT22;7517;48.400;11.770;2022-09-13T12:42:32;28.40;52.20
14850;DHT22;7517;48.400;11.770;2022-09-13T12:45:33;28.40;51.80
14850;DHT22;7517;48.400;11.770;2022-09-13T12:54:46;28.30;51.90
14850;DHT22;7517;48.400;11.770;2022-09-13T12:57:43;28.30;51.90
14850;DHT22;7517;48.400;11.770;2022-09-13T13:00:20;28.30;52.00
14850;DHT22;7517;48.400;11.770;2022-09-13T13:02:56;28.20;52.70
14850;DHT22;7517;48.400;11.770;2022-09-13T13:05:32;28.20;52.50
14850;DHT22;7517;48.400;11.770;2022-09-13T13:08:14;28.20;52.90
14850;DHT22;7517;48.400;11.770;2022-09-13T13:11:05;28.30;53.20
14850;DHT22;7517;48.400;11.770;2022-09-13T13:13:37;28.20;52.90
14850;DHT22;7517;48.400;11.770;2022-09-13T13:16:25;28.20;52.80
14850;DHT22;7517;48.400;11.770;2022-09-13T13:18:56;28.20;52.40
14850;DHT22;7517;48.400;11.770;2022-09-13T13:21:30;28.20;52.60
14850;DHT22;7517;48.400;11.770;2022-09-13T13:27:40;28.30;51.90
14850;DHT22;7517;48.400;11.770;2022-09-13T13:30:39;28.30;51.60
14850;DHT22;7517;48.400;11.770;2022-09-13T13:33:28;28.30;51.60
14850;DHT22;7517;48.400;11.770;2022-09-13T13:36:22;28.30;51.70
14850;DHT22;7517;48.400;11.770;2022-09-13T13:38:51;28.30;51.30
14850;DHT22;7517;48.400;11.770;2022-09-13T13:41:48;28.30;52.00
14850;DHT22;7517;48.400;11.770;2022-09-13T13:45:04;28.30;51.40
14850;DHT22;7517;48.400;11.770;2022-09-13T13:48:11;28.30;51.80
14850;DHT22;7517;48.400;11.770;2022-09-13T13:51:12;28.30;52.10
14850;DHT22;7517;48.400;11.770;2022-09-13T13:53:52;28.30;51.80
14850;DHT22;7517;48.400;11.770;2022-09-13T13:56:33;28.30;52.00
14850;DHT22;7517;48.400;11.770;2022-09-13T13:59:20;28.30;52.00
14850;DHT22;7517;48.400;11.770;2022-09-13T14:01:53;28.30;52.00
14850;DHT22;7517;48.400;11.770;2022-09-13T14:04:59;28.30;51.80
14850;DHT22;7517;48.400;11.770;2022-09-13T14:11:15;28.40;51.60
14850;DHT22;7517;48.400;11.770;2022-09-13T14:14:11;28.40;51.30
14850;DHT22;7517;48.400;11.770;2022-09-13T14:17:00;28.40;50.80
14850;DHT22;7517;48.400;11.770;2022-09-13T14:19:56;28.40;50.80
14850;DHT22;7517;48.400;11.770;2022-09-13T14:22:27;28.40;51.10
14850;DHT22;7517;48.400;11.770;2022-09-13T14:25:12;28.40;50.80
14850;DHT22;7517;48.400;11.770;2022-09-13T14:27:48;28.40;50.80
14850;DHT22;7517;48.400;11.770;2022-09-13T14:30:19;28.40;51.10
14850;DHT22;7517;48.400;11.770;2022-09-13T14:32:50;28.50;51.10
14850;DHT22;7517;48.400;11.770;2022-09-13T14:35:25;28.50;50.80
14850;DHT22;7517;48.400;11.770;2022-09-13T14:38:09;28.50;50.40
14850;DHT22;7517;48.400;11.770;2022-09-13T14:40:57;28.50;50.80
14850;DHT22;7517;48.400;11.770;2022-09-13T14:43:28;28.60;51.80
14850;DHT22;7517;48.400;11.770;2022-09-13T14:46:01;28.60;51.60
14850;DHT22;7517;48.400;11.770;2022-09-13T14:48:36;28.60;51.70
14850;DHT22;7517;48.400;11.770;2022-09-13T14:51:11;28.60;51.90
14850;DHT22;7517;48.400;11.770;2022-09-13T14:53:46;28.60;52.10
14850;DHT22;7517;48.400;11.770;2022-09-13T14:56:27;28.60;52.30
14850;DHT22;7517;48.400;11.770;2022-09-13T14:59:02;28.60;52.80
14850;DHT22;7517;48.400;11.770;2022-09-13T15:01:34;28.60;53.00
14850;DHT22;7517;48.400;11.770;2022-09-13T15:04:03;28.60;53.00
14850;DHT22;7517;48.400;11.770;2022-09-13T15:06:34;28.60;53.40
14850;DHT22;7517;48.400;11.770;2022-09-13T15:09:14;28.50;53.90
14850;DHT22;7517;48.400;11.770;2022-09-13T15:11:58;28.50;54.60
14850;DHT22;7517;48.400;11.770;2022-09-13T15:14:32;28.50;54.70
14850;DHT22;7517;48.400;11.770;2022-09-13T15:17:08;28.50;54.80
14850;DHT22;7517;48.400;11.770;2022-09-13T15:19:38;28.50;54.50
14850;DHT22;7517;48.400;11.770;2022-09-13T15:22:20;28.40;54.80
14850;DHT22;7517;48.400;11.770;2022-09-13T15:24:54;28.40;55.40
14850;DHT22;7517;48.400;11.770;2022-09-13T15:27:51;28.40;55.70
14850;DHT22;7517;48.400;11.770;2022-09-13T15:31:26;28.40;56.30
14850;DHT22;7517;48.400;11.770;2022-09-13T15:34:24;28.30;56.80
14850;DHT22;7517;48.400;11.770;2022-09-13T15:37:09;28.30;57.30
14850;DHT22;7517;48.400;11.770;2022-09-13T15:39:44;28.20;56.90
14850;DHT22;7517;48.400;11.770;2022-09-13T15:42:13;28.20;57.10
14850;DHT22;7517;48.400;11.770;2022-09-13T15:44:45;28.10;57.00
14850;DHT22;7517;48.400;11.770;2022-09-13T15:47:15;28.10;57.20
14850;DHT22;7517;48.400;11.770;2022-09-13T15:49:50;28.00;57.40
14850;DHT22;7517;48.400;11.770;2022-09-13T15:52:23;28.00;57.70
14850;DHT22;7517;48.400;11.770;2022-09-13T15:54:50;27.90;57.80
14850;DHT22;7517;48.400;11.770;2022-09-13T15:57:22;27.90;58.00
14850;DHT22;7517;48.400;11.770;2022-09-13T15:59:52;27.90;58.00
14850;DHT22;7517;48.400;11.770;2022-09-13T16:02:22;27.80;58.00
14850;DHT22;7517;48.400;11.770;2022-09-13T16:04:51;27.80;58.40
14850;DHT22;7517;48.400;11.770;2022-09-13T16:07:19;27.80;58.30
14850;DHT22;7517;48.400;11.770;2022-09-13T16:09:47;27.80;58.50
14850;DHT22;7517;48.400;11.770;2022-09-13T16:12:15;27.70;58.50
14850;DHT22;7517;48.400;11.770;2022-09-13T16:14:43;27.70;58.40
14850;DHT22;7517;48.400;11.770;2022-09-13T16:17:15;27.70;58.30
14850;DHT22;7517;48.400;11.770;2022-09-13T16:19:46;27.60;58.40
14850;DHT22;7517;48.400;11.770;2022-09-13T16:22:13;27.60;58.60
14850;DHT22;7517;48.400;11.770;2022-09-13T16:24:41;27.60;58.80
14850;DHT22;7517;48.400;11.770;2022-09-13T16:27:08;27.60;58.80
14850;DHT22;7517;48.400;11.770;2022-09-13T16:29:50;27.50;58.60
14850;DHT22;7517;48.400;11.770;2022-09-13T16:32:18;27.50;58.80
14850;DHT22;7517;48.400;11.770;2022-09-13T16:34:47;27.50;58.70
14850;DHT22;7517;48.400;11.770;2022-09-13T16:37:15;27.40;58.60
14850;DHT22;7517;48.400;11.770;2022-09-13T16:39:43;27.40;58.70
14850;DHT22;7517;48.400;11.770;2022-09-13T16:42:16;27.30;58.80
14850;DHT22;7517;48.400;11.770;2022-09-13T16:44:47;27.30;59.00
14850;DHT22;7517;48.400;11.770;2022-09-13T16:47:18;27.20;59.10
14850;DHT22;7517;48.400;11.770;2022-09-13T16:49:48;27.20;59.30
14850;DHT22;7517;48.400;11.770;2022-09-13T16:52:16;27.10;59.40
14850;DHT22;7517;48.400;11.770;2022-09-13T16:54:46;27.10;59.70
14850;DHT22;7517;48.400;11.770;2022-09-13T16:57:17;27.00;59.80